createdAt,value
2022-12-04T00:03:54.038Z,1.50
2022-12-04T00:08:56.577Z,1.50
2022-12-04T00:14:06.587Z,1.60
2022-12-04T00:19:09.093Z,1.60
2022-12-04T00:24:10.839Z,1.80
2022-12-04T00:29:13.920Z,1.90
2022-12-04T00:34:15.605Z,1.90
2022-12-04T00:39:17.412Z,1.90
2022-12-04T00:44:20.501Z,1.90
2022-12-04T00:49:22.223Z,1.90
2022-12-04T00:54:23.968Z,1.70
2022-12-04T00:59:27.013Z,1.80
2022-12-04T01:04:28.718Z,2.00
2022-12-04T01:09:30.386Z,1.70
2022-12-04T01:14:33.519Z,1.80
2022-12-04T01:19:35.225Z,1.80
2022-12-04T01:24:36.902Z,1.70
2022-12-04T01:29:39.972Z,1.80
2022-12-04T01:34:41.686Z,1.90
2022-12-04T01:39:43.471Z,1.70
2022-12-04T01:45:18.518Z,1.60
2022-12-04T01:50:21.776Z,1.80
2022-12-04T01:55:23.607Z,1.80
2022-12-04T02:00:25.360Z,1.70
2022-12-04T02:05:28.457Z,1.80
2022-12-04T02:10:40.629Z,1.80
2022-12-04T02:15:48.555Z,1.80
2022-12-04T02:21:00.534Z,1.80
2022-12-04T02:26:19.012Z,1.90
2022-12-04T02:31:27.039Z,1.70
2022-12-04T02:36:32.570Z,1.70
2022-12-04T02:41:39.135Z,1.80
2022-12-04T02:46:44.774Z,1.90
2022-12-04T02:51:48.470Z,1.70
2022-12-04T02:56:52.184Z,1.70
2022-12-04T03:02:00.159Z,1.70
2022-12-04T03:07:06.325Z,1.60
2022-12-04T03:12:15.397Z,1.50
2022-12-04T03:17:23.250Z,1.60
2022-12-04T03:22:27.493Z,1.60
2022-12-04T03:27:36.845Z,1.50
2022-12-04T03:32:45.089Z,1.60
2022-12-04T03:37:53.390Z,1.60
2022-12-04T03:42:59.067Z,1.60
2022-12-04T03:48:06.187Z,1.60
2022-12-04T03:53:16.231Z,1.60
2022-12-04T03:58:23.344Z,1.60
2022-12-04T04:03:30.907Z,1.50
2022-12-04T04:08:36.831Z,1.50
2022-12-04T04:13:43.854Z,1.70
2022-12-04T04:18:47.801Z,1.50
2022-12-04T04:23:51.256Z,1.60
2022-12-04T04:28:52.975Z,1.60
2022-12-04T04:34:03.196Z,1.50
2022-12-04T04:39:11.539Z,1.60
2022-12-04T04:44:20.155Z,1.60
2022-12-04T04:49:27.678Z,1.60
2022-12-04T04:54:30.849Z,1.70
2022-12-04T04:59:32.616Z,1.60
2022-12-04T05:04:35.715Z,1.60
2022-12-04T05:09:41.187Z,1.50
2022-12-04T05:14:46.621Z,1.60
2022-12-04T05:19:49.733Z,1.60
2022-12-04T05:24:51.721Z,1.60
2022-12-04T05:29:54.643Z,1.60
2022-12-04T05:34:58.512Z,1.50
2022-12-04T05:40:00.337Z,1.50
2022-12-04T05:45:02.047Z,1.40
2022-12-04T05:50:06.595Z,1.30
2022-12-04T05:55:08.851Z,1.30
2022-12-04T06:00:11.868Z,1.30
2022-12-04T06:05:15.262Z,1.30
2022-12-04T06:10:17.122Z,1.20
2022-12-04T06:15:27.591Z,1.20
2022-12-04T06:20:30.737Z,1.20
2022-12-04T06:25:32.483Z,1.20
2022-12-04T06:30:34.338Z,1.20
2022-12-04T06:35:37.372Z,1.20
2022-12-04T06:40:39.867Z,1.20
2022-12-04T06:45:41.558Z,1.20
2022-12-04T06:50:44.679Z,1.10
2022-12-04T06:55:48.458Z,1.10
2022-12-04T07:00:50.265Z,1.10
2022-12-04T07:05:53.460Z,1.10
2022-12-04T07:10:59.133Z,1.10
2022-12-04T07:16:01.603Z,1.00
2022-12-04T07:21:07.335Z,1.00
2022-12-04T07:26:10.877Z,1.00
2022-12-04T07:31:14.547Z,1.10
2022-12-04T07:36:19.554Z,1.10
2022-12-04T07:41:21.331Z,1.00
2022-12-04T07:46:25.535Z,1.10
2022-12-04T07:51:29.861Z,1.10
2022-12-04T07:56:32.116Z,1.10
2022-12-04T08:01:33.932Z,1.00
2022-12-04T08:06:37.619Z,1.10
2022-12-04T08:11:39.421Z,1.10
2022-12-04T08:16:41.103Z,1.10
2022-12-04T08:21:44.167Z,1.10
2022-12-04T08:26:45.888Z,1.10
2022-12-04T08:31:47.530Z,1.10
2022-12-04T08:36:50.584Z,1.10
2022-12-04T08:41:56.832Z,1.10
2022-12-04T08:46:58.926Z,1.10
2022-12-04T08:52:01.992Z,1.10
2022-12-04T08:57:03.929Z,1.10
2022-12-04T09:02:06.013Z,1.10
2022-12-04T09:07:09.179Z,1.10
2022-12-04T09:12:10.811Z,1.10
2022-12-04T09:17:12.557Z,1.10
2022-12-04T09:22:15.764Z,1.10
2022-12-04T09:27:17.624Z,1.20
2022-12-04T09:32:19.398Z,1.20
2022-12-04T09:37:22.455Z,1.30
2022-12-04T09:42:43.881Z,1.30
2022-12-04T09:47:48.110Z,1.50
2022-12-04T09:52:56.898Z,1.50
2022-12-04T09:58:02.301Z,1.60
2022-12-04T10:03:07.002Z,1.60
2022-12-04T10:08:17.284Z,1.70
2022-12-04T10:13:39.640Z,1.70
2022-12-04T10:18:49.040Z,1.70
2022-12-04T10:24:01.721Z,1.70
2022-12-04T10:29:06.768Z,1.70
2022-12-04T10:34:18.728Z,1.80
2022-12-04T10:39:25.939Z,1.80
2022-12-04T10:44:27.699Z,1.80
2022-12-04T10:49:31.529Z,1.90
2022-12-04T10:54:37.298Z,1.90
2022-12-04T10:59:40.309Z,1.90
2022-12-04T11:04:42.232Z,2.00
2022-12-04T11:09:55.582Z,1.90
2022-12-04T11:15:02.324Z,1.90
2022-12-04T11:20:06.938Z,2.00
2022-12-04T11:25:17.860Z,2.10
2022-12-04T11:30:24.831Z,2.00
2022-12-04T11:35:29.237Z,2.10
2022-12-04T11:40:32.457Z,2.10
2022-12-04T11:45:34.523Z,2.20
2022-12-04T11:50:46.079Z,2.20
2022-12-04T11:56:04.823Z,2.20
2022-12-04T12:01:19.959Z,2.10
2022-12-04T12:06:32.748Z,2.20
2022-12-04T12:11:40.985Z,2.20
2022-12-04T12:16:56.175Z,2.20
2022-12-04T12:22:07.303Z,2.10
2022-12-04T12:27:31.381Z,2.20
2022-12-04T12:32:52.245Z,2.20
2022-12-04T12:37:59.089Z,2.30
2022-12-04T12:43:07.085Z,2.30
2022-12-04T12:48:19.063Z,2.30
2022-12-04T12:53:23.748Z,2.30
2022-12-04T12:58:30.415Z,2.30
2022-12-04T13:03:39.835Z,2.30
2022-12-04T13:08:49.290Z,2.30
2022-12-04T13:13:55.883Z,2.30
2022-12-04T13:19:07.436Z,2.30
2022-12-04T13:24:35.961Z,2.30
2022-12-04T13:29:51.972Z,2.30
2022-12-04T13:35:03.871Z,2.30
2022-12-04T13:40:27.598Z,2.30
2022-12-04T13:45:33.611Z,2.30
2022-12-04T13:50:36.703Z,2.30
2022-12-04T13:55:39.702Z,2.30
2022-12-04T14:01:23.130Z,2.30
2022-12-04T14:06:31.125Z,2.20
2022-12-04T14:11:44.920Z,2.20
2022-12-04T14:16:49.201Z,2.20
2022-12-04T14:21:51.058Z,2.20
2022-12-04T14:27:11.223Z,2.20
2022-12-04T14:32:23.146Z,2.20
2022-12-04T14:37:28.980Z,2.20
2022-12-04T14:42:36.404Z,2.20
2022-12-04T14:47:49.712Z,2.20
2022-12-04T14:53:00.214Z,2.20
2022-12-04T14:58:03.773Z,2.20
2022-12-04T15:03:13.561Z,2.20
2022-12-04T15:08:15.586Z,2.20
2022-12-04T15:13:25.751Z,2.20
2022-12-04T15:18:28.909Z,2.20
2022-12-04T15:23:35.836Z,2.20
2022-12-04T15:28:44.215Z,2.10
2022-12-04T15:33:50.626Z,2.10
2022-12-04T15:38:53.307Z,2.10
2022-12-04T15:43:55.078Z,2.10
2022-12-04T15:49:07.420Z,2.10
2022-12-04T15:54:15.502Z,2.10
2022-12-04T15:59:18.200Z,2.10
2022-12-04T16:04:22.866Z,2.10
2022-12-04T16:09:26.729Z,2.10
2022-12-04T16:14:28.682Z,2.10
2022-12-04T16:19:34.538Z,2.10
2022-12-04T16:24:36.237Z,2.10
2022-12-04T16:29:37.945Z,2.20
2022-12-04T16:34:41.060Z,2.20
2022-12-04T16:39:42.964Z,2.20
2022-12-04T16:44:45.418Z,2.20
2022-12-04T16:49:50.820Z,2.20
2022-12-04T16:54:52.507Z,2.20
2022-12-04T16:59:54.646Z,2.20
2022-12-04T17:04:58.359Z,2.10
2022-12-04T17:10:00.140Z,2.10
2022-12-04T17:15:01.926Z,2.10
2022-12-04T17:20:06.640Z,2.10
2022-12-04T17:25:08.790Z,2.00
2022-12-04T17:30:12.040Z,1.90
2022-12-04T17:35:15.184Z,1.90
2022-12-04T17:40:16.931Z,1.80
2022-12-04T17:45:18.838Z,1.80
2022-12-04T17:50:21.934Z,1.70
2022-12-04T17:55:23.671Z,1.80
2022-12-04T18:00:25.502Z,1.70
2022-12-04T18:05:30.609Z,1.70
2022-12-04T18:10:34.808Z,1.70
2022-12-04T18:15:36.656Z,1.60
2022-12-04T18:20:39.831Z,1.60
2022-12-04T18:25:41.818Z,1.70
2022-12-04T18:30:43.700Z,1.70
2022-12-04T18:35:54.420Z,1.60
2022-12-04T18:41:02.122Z,1.60
2022-12-04T18:46:07.796Z,1.50
2022-12-04T18:51:22.944Z,1.60
2022-12-04T18:56:24.790Z,1.60
2022-12-04T19:01:27.825Z,1.60
2022-12-04T19:06:34.319Z,1.60
2022-12-04T19:11:38.522Z,1.60
2022-12-04T19:16:43.267Z,1.60
2022-12-04T19:21:46.423Z,1.60
2022-12-04T19:26:48.109Z,1.60
2022-12-04T19:31:52.499Z,1.60
2022-12-04T19:36:59.320Z,1.60
2022-12-04T19:42:01.076Z,1.60
2022-12-04T19:47:02.885Z,1.60
2022-12-04T19:52:06.044Z,1.60
2022-12-04T19:57:07.837Z,1.70
2022-12-04T20:02:10.985Z,1.60
2022-12-04T20:07:14.169Z,1.60
2022-12-04T20:12:15.894Z,1.60
2022-12-04T20:17:17.662Z,1.70
2022-12-04T20:22:20.852Z,1.70
2022-12-04T20:27:22.602Z,1.70
2022-12-04T20:32:24.303Z,1.70
2022-12-04T20:37:27.464Z,1.70
2022-12-04T20:42:33.466Z,1.70
2022-12-04T20:47:36.220Z,1.70
2022-12-04T20:52:39.425Z,1.70
2022-12-04T20:57:41.177Z,1.70
2022-12-04T21:02:42.984Z,1.70
2022-12-04T21:07:46.142Z,1.80
2022-12-04T21:12:47.881Z,1.70
2022-12-04T21:17:49.630Z,1.70
2022-12-04T21:22:52.691Z,1.70
2022-12-04T21:27:54.916Z,1.70
2022-12-04T21:32:56.597Z,1.70
2022-12-04T21:37:59.752Z,1.70
2022-12-04T21:43:01.425Z,1.70
2022-12-04T21:48:05.306Z,1.70
2022-12-04T21:53:08.555Z,1.80
2022-12-04T21:58:10.354Z,1.80
2022-12-04T22:03:12.413Z,1.80
2022-12-04T22:08:15.525Z,1.60
2022-12-04T22:13:17.451Z,1.60
2022-12-04T22:18:19.269Z,1.60
2022-12-04T22:23:22.325Z,1.60
2022-12-04T22:28:24.058Z,1.60
2022-12-04T22:33:25.767Z,1.60
2022-12-04T22:38:29.410Z,1.70
2022-12-04T22:43:37.706Z,1.70
2022-12-04T22:48:43.413Z,1.60
2022-12-04T22:53:48.152Z,1.60
2022-12-04T22:58:50.059Z,1.60
2022-12-04T23:03:51.997Z,1.60
2022-12-04T23:08:57.015Z,1.60
2022-12-04T23:14:00.701Z,1.60
2022-12-04T23:19:03.254Z,1.60
2022-12-04T23:24:06.831Z,1.50
2022-12-04T23:29:29.603Z,1.50
2022-12-04T23:34:30.671Z,1.50
2022-12-04T23:39:33.715Z,1.50
2022-12-04T23:44:35.462Z,1.50
2022-12-04T23:49:37.228Z,1.50
2022-12-04T23:54:40.384Z,1.50
2022-12-04T23:59:42.173Z,1.50
